createdAt,value
2022-10-23T00:01:45.089Z,5.88
2022-10-23T00:04:20.882Z,7.53
2022-10-23T00:06:48.945Z,7.28
2022-10-23T00:09:18.821Z,5.75
2022-10-23T00:11:48.047Z,6.85
2022-10-23T00:14:16.769Z,7.18
2022-10-23T00:16:43.707Z,7.03
2022-10-23T00:19:11.028Z,6.40
2022-10-23T00:21:37.925Z,6.82
2022-10-23T00:24:04.983Z,6.80
2022-10-23T00:26:33.894Z,6.90
2022-10-23T00:29:00.665Z,5.68
2022-10-23T00:31:27.271Z,6.03
2022-10-23T00:33:55.968Z,7.55
2022-10-23T00:36:22.618Z,7.28
2022-10-23T00:38:51.349Z,6.60
2022-10-23T00:41:21.593Z,6.30
2022-10-23T00:44:03.435Z,6.35
2022-10-23T00:46:30.764Z,6.00
2022-10-23T00:48:58.626Z,7.20
2022-10-23T00:51:29.541Z,7.22
2022-10-23T00:54:12.913Z,6.80
2022-10-23T00:56:46.384Z,7.68
2022-10-23T00:59:13.216Z,8.50
2022-10-23T01:01:40.285Z,7.15
2022-10-23T01:04:08.129Z,7.10
2022-10-23T01:06:40.548Z,7.13
2022-10-23T01:09:22.952Z,5.55
2022-10-23T01:12:09.674Z,6.78
2022-10-23T01:14:47.149Z,7.53
2022-10-23T01:17:23.168Z,5.55
2022-10-23T01:20:11.322Z,7.60
2022-10-23T01:23:02.728Z,8.40
2022-10-23T01:25:55.507Z,8.00
2022-10-23T01:28:50.633Z,8.57
2022-10-23T01:31:35.592Z,8.07
2022-10-23T01:34:18.996Z,8.07
2022-10-23T01:36:48.440Z,6.20
2022-10-23T01:39:29.744Z,8.18
2022-10-23T01:42:03.946Z,6.82
2022-10-23T01:44:41.054Z,7.18
2022-10-23T01:47:10.068Z,8.40
2022-10-23T01:49:39.608Z,6.95
2022-10-23T01:52:08.747Z,6.18
2022-10-23T01:54:40.346Z,6.60
2022-10-23T01:57:11.008Z,7.00
2022-10-23T02:02:07.870Z,8.77
2022-10-23T02:04:40.136Z,8.77
2022-10-23T02:07:06.984Z,8.85
2022-10-23T02:09:34.529Z,8.68
2022-10-23T02:12:06.929Z,6.00
2022-10-23T02:14:36.459Z,6.38
2022-10-23T02:17:17.909Z,6.85
2022-10-23T02:19:54.091Z,7.65
2022-10-23T02:22:31.534Z,8.88
2022-10-23T02:25:18.352Z,8.30
2022-10-23T02:27:52.329Z,6.53
2022-10-23T02:30:22.998Z,6.13
2022-10-23T02:35:20.017Z,7.60
2022-10-23T02:37:58.485Z,7.70
2022-10-23T02:40:33.165Z,6.20
2022-10-23T02:43:09.580Z,6.53
2022-10-23T02:45:42.560Z,6.43
2022-10-23T02:48:20.153Z,6.57
2022-10-23T02:50:57.999Z,5.68
2022-10-23T02:53:47.054Z,6.00
2022-10-23T02:56:23.218Z,7.30
2022-10-23T02:59:14.524Z,6.50
2022-10-23T03:01:58.371Z,5.60
2022-10-23T03:04:28.097Z,5.25
2022-10-23T03:06:55.696Z,6.25
2022-10-23T03:09:22.436Z,6.28
2022-10-23T03:11:49.010Z,5.60
2022-10-23T03:14:15.636Z,6.00
2022-10-23T03:16:42.369Z,6.95
2022-10-23T03:19:09.152Z,7.28
2022-10-23T03:21:36.014Z,6.60
2022-10-23T03:24:06.160Z,7.40
2022-10-23T03:26:32.724Z,7.30
2022-10-23T03:28:59.299Z,5.75
2022-10-23T03:31:26.011Z,5.40
2022-10-23T03:33:52.599Z,7.05
2022-10-23T03:36:19.247Z,5.65
2022-10-23T03:38:45.869Z,7.65
2022-10-23T03:41:12.481Z,7.38
2022-10-23T03:43:39.178Z,6.97
2022-10-23T03:46:09.406Z,7.82
2022-10-23T03:48:39.667Z,8.77
2022-10-23T03:51:06.592Z,11.25
2022-10-23T03:53:33.289Z,7.93
2022-10-23T03:56:00.181Z,6.38
2022-10-23T03:58:26.852Z,6.72
2022-10-23T04:00:53.444Z,8.57
2022-10-23T04:03:20.105Z,8.77
2022-10-23T04:05:46.829Z,6.80
2022-10-23T04:08:20.004Z,9.85
2022-10-23T04:10:47.186Z,9.98
2022-10-23T04:13:19.835Z,8.07
2022-10-23T04:15:50.740Z,6.43
2022-10-23T04:18:17.941Z,6.43
2022-10-23T04:20:47.008Z,7.10
2022-10-23T04:23:13.642Z,7.22
2022-10-23T04:25:40.293Z,7.20
2022-10-23T04:28:06.978Z,6.95
2022-10-23T04:30:33.610Z,7.97
2022-10-23T04:33:00.276Z,6.97
2022-10-23T04:35:26.936Z,8.32
2022-10-23T04:37:53.568Z,8.07
2022-10-23T04:40:20.143Z,7.85
2022-10-23T04:42:46.766Z,12.77
2022-10-23T04:45:13.499Z,15.52
2022-10-23T04:47:40.126Z,12.52
2022-10-23T04:50:07.128Z,11.45
2022-10-23T04:52:33.734Z,9.00
2022-10-23T04:55:00.434Z,7.55
2022-10-23T04:57:27.219Z,9.27
2022-10-23T04:59:53.791Z,7.18
2022-10-23T05:02:20.427Z,8.20
2022-10-23T05:04:47.036Z,7.75
2022-10-23T05:07:13.685Z,8.25
2022-10-23T05:09:40.393Z,9.75
2022-10-23T05:12:07.025Z,8.27
2022-10-23T05:14:33.623Z,7.68
2022-10-23T05:17:12.983Z,8.38
2022-10-23T05:19:44.930Z,7.35
2022-10-23T05:22:13.105Z,6.80
2022-10-23T05:24:40.299Z,6.95
2022-10-23T05:27:06.909Z,7.68
2022-10-23T05:29:33.552Z,8.43
2022-10-23T05:32:03.136Z,8.60
2022-10-23T05:34:31.782Z,7.28
2022-10-23T05:36:58.585Z,7.28
2022-10-23T05:39:25.212Z,6.78
2022-10-23T05:41:52.402Z,7.40
2022-10-23T05:44:18.997Z,6.35
2022-10-23T05:46:45.609Z,7.65
2022-10-23T05:49:12.259Z,7.43
2022-10-23T05:51:40.449Z,6.95
2022-10-23T05:54:08.291Z,6.90
2022-10-23T05:56:41.560Z,7.05
2022-10-23T05:59:08.744Z,6.72
2022-10-23T06:01:35.494Z,9.00
2022-10-23T06:04:02.296Z,6.47
2022-10-23T06:06:29.005Z,7.00
2022-10-23T06:08:55.656Z,7.20
2022-10-23T06:11:22.674Z,7.78
2022-10-23T06:13:49.268Z,7.47
2022-10-23T06:16:18.640Z,5.93
2022-10-23T06:18:46.245Z,7.07
2022-10-23T06:21:13.531Z,5.72
2022-10-23T06:23:41.762Z,7.38
2022-10-23T06:26:10.920Z,7.85
2022-10-23T06:28:38.884Z,7.25
2022-10-23T06:31:06.886Z,7.00
2022-10-23T06:33:33.892Z,7.50
2022-10-23T06:36:00.537Z,7.38
2022-10-23T06:38:27.134Z,7.30
2022-10-23T06:40:55.453Z,8.48
2022-10-23T06:43:22.420Z,6.50
2022-10-23T06:45:49.239Z,7.35
2022-10-23T06:48:16.411Z,6.80
2022-10-23T06:50:43.158Z,7.57
2022-10-23T06:53:09.769Z,6.88
2022-10-23T06:58:03.071Z,7.63
2022-10-23T07:00:29.755Z,6.03
2022-10-23T07:02:56.341Z,6.97
2022-10-23T07:05:22.960Z,6.55
2022-10-23T07:07:49.627Z,7.57
2022-10-23T07:10:16.319Z,7.68
2022-10-23T07:12:44.422Z,7.03
2022-10-23T07:15:11.294Z,7.15
2022-10-23T07:17:37.895Z,6.72
2022-10-23T07:20:04.840Z,7.15
2022-10-23T07:22:31.459Z,6.75
2022-10-23T07:24:58.137Z,6.32
2022-10-23T07:27:24.958Z,7.60
2022-10-23T07:29:52.443Z,5.93
2022-10-23T07:32:19.824Z,7.28
2022-10-23T07:34:46.415Z,6.50
2022-10-23T07:37:12.969Z,6.57
2022-10-23T07:39:39.617Z,7.45
2022-10-23T07:42:06.326Z,7.85
2022-10-23T07:44:32.874Z,6.43
2022-10-23T07:46:59.539Z,7.18
2022-10-23T07:49:26.165Z,6.28
2022-10-23T07:51:53.998Z,6.97
2022-10-23T07:54:20.710Z,6.97
2022-10-23T07:56:47.366Z,7.10
2022-10-23T07:59:14.692Z,7.80
2022-10-23T08:01:45.924Z,7.53
2022-10-23T08:04:12.628Z,7.70
2022-10-23T08:06:39.775Z,7.47
2022-10-23T08:09:21.448Z,7.63
2022-10-23T08:12:16.436Z,7.57
2022-10-23T08:14:43.077Z,7.53
2022-10-23T08:17:10.184Z,8.65
2022-10-23T08:19:37.054Z,7.82
2022-10-23T08:22:04.071Z,8.35
2022-10-23T08:24:30.886Z,8.10
2022-10-23T08:26:58.666Z,8.18
2022-10-23T08:29:25.723Z,7.60
2022-10-23T08:31:55.936Z,7.40
2022-10-23T08:34:22.656Z,7.35
2022-10-23T08:36:49.426Z,8.18
2022-10-23T08:39:16.299Z,8.32
2022-10-23T08:41:47.926Z,8.32
2022-10-23T08:44:27.405Z,9.65
2022-10-23T08:47:06.217Z,8.60
2022-10-23T08:49:39.123Z,8.02
2022-10-23T08:52:17.187Z,8.25
2022-10-23T08:54:57.545Z,7.72
2022-10-23T08:57:33.406Z,7.82
2022-10-23T09:00:12.436Z,8.25
2022-10-23T09:02:43.666Z,8.43
2022-10-23T09:06:02.225Z,7.28
2022-10-23T09:08:37.732Z,7.60
2022-10-23T09:11:04.605Z,7.40
2022-10-23T09:13:37.385Z,7.53
2022-10-23T09:16:22.966Z,8.35
2022-10-23T09:18:50.563Z,7.93
2022-10-23T09:21:17.610Z,7.90
2022-10-23T09:23:44.290Z,8.52
2022-10-23T09:26:18.186Z,7.65
2022-10-23T09:28:55.412Z,9.65
2022-10-23T09:31:22.232Z,7.85
2022-10-23T09:34:00.095Z,8.50
2022-10-23T09:36:29.343Z,8.23
2022-10-23T09:39:01.764Z,7.70
2022-10-23T09:41:35.241Z,8.00
2022-10-23T09:44:07.659Z,8.07
2022-10-23T09:46:55.481Z,8.27
2022-10-23T09:49:26.472Z,7.93
2022-10-23T09:52:03.770Z,9.57
2022-10-23T09:54:34.545Z,8.50
2022-10-23T09:57:23.964Z,8.25
2022-10-23T09:59:53.195Z,8.13
2022-10-23T10:02:43.207Z,8.93
2022-10-23T10:05:29.937Z,8.73
2022-10-23T10:08:23.073Z,8.25
2022-10-23T10:11:01.443Z,7.88
2022-10-23T10:13:30.977Z,8.80
2022-10-23T10:16:27.732Z,7.93
2022-10-23T10:19:31.413Z,6.63
2022-10-23T10:22:16.845Z,8.52
2022-10-23T10:24:49.458Z,8.25
2022-10-23T10:27:24.927Z,7.85
2022-10-23T10:30:06.200Z,8.18
2022-10-23T10:32:38.442Z,9.70
2022-10-23T10:35:20.788Z,7.88
2022-10-23T10:37:57.584Z,9.07
2022-10-23T10:40:35.497Z,7.68
2022-10-23T10:43:11.436Z,9.93
2022-10-23T10:45:44.717Z,8.25
2022-10-23T10:48:23.542Z,8.93
2022-10-23T10:51:02.468Z,8.10
2022-10-23T10:54:10.926Z,8.38
2022-10-23T10:56:41.853Z,7.30
2022-10-23T10:59:36.009Z,8.70
2022-10-23T11:02:21.292Z,7.47
2022-10-23T11:04:57.416Z,8.45
2022-10-23T11:07:29.538Z,8.90
2022-10-23T11:10:00.334Z,8.02
2022-10-23T11:12:28.340Z,7.97
2022-10-23T11:14:55.737Z,7.93
2022-10-23T11:17:38.152Z,9.15
2022-10-23T11:20:35.954Z,8.30
2022-10-23T11:23:21.342Z,8.25
2022-10-23T11:26:18.820Z,8.45
2022-10-23T11:29:24.723Z,8.10
2022-10-23T11:32:00.170Z,9.95
2022-10-23T11:34:47.047Z,8.93
2022-10-23T11:37:21.201Z,8.48
2022-10-23T11:40:03.405Z,8.70
2022-10-23T11:42:33.539Z,8.07
2022-10-23T11:45:00.431Z,9.85
2022-10-23T11:47:38.022Z,9.40
2022-10-23T11:50:08.842Z,8.02
2022-10-23T11:52:45.501Z,7.55
2022-10-23T11:55:19.920Z,8.18
2022-10-23T11:58:04.943Z,8.60
2022-10-23T12:00:38.810Z,8.60
2022-10-23T12:03:06.383Z,9.65
2022-10-23T12:05:41.653Z,8.68
2022-10-23T12:08:26.004Z,8.00
2022-10-23T12:10:53.265Z,7.78
2022-10-23T12:13:43.814Z,7.60
2022-10-23T12:16:11.119Z,7.88
2022-10-23T12:18:54.231Z,7.65
2022-10-23T12:21:28.194Z,8.10
2022-10-23T12:24:06.661Z,8.57
2022-10-23T12:26:50.713Z,7.88
2022-10-23T12:29:36.170Z,8.85
2022-10-23T12:32:36.071Z,8.13
2022-10-23T12:35:08.915Z,8.13
2022-10-23T12:38:15.130Z,7.28
2022-10-23T12:40:51.040Z,9.23
2022-10-23T12:43:26.253Z,8.55
2022-10-23T12:45:58.025Z,8.70
2022-10-23T12:48:27.810Z,9.02
2022-10-23T12:50:56.613Z,8.77
2022-10-23T12:53:24.371Z,9.23
2022-10-23T12:56:05.308Z,8.93
2022-10-23T12:58:34.684Z,8.57
2022-10-23T13:01:05.012Z,8.80
2022-10-23T13:06:04.753Z,9.35
2022-10-23T13:08:40.900Z,9.40
2022-10-23T13:11:14.097Z,8.48
2022-10-23T13:13:42.211Z,9.05
2022-10-23T13:16:17.633Z,9.55
2022-10-23T13:20:19.338Z,9.10
2022-10-23T13:22:59.449Z,9.38
2022-10-23T13:25:27.555Z,10.25
2022-10-23T13:28:15.053Z,10.77
2022-10-23T13:30:49.020Z,11.65
2022-10-23T13:33:23.872Z,9.60
2022-10-23T13:35:58.276Z,10.32
2022-10-23T13:38:30.444Z,9.93
2022-10-23T13:41:00.107Z,9.25
2022-10-23T13:43:29.605Z,9.80
2022-10-23T13:45:58.994Z,7.90
2022-10-23T13:48:28.632Z,9.02
2022-10-23T13:51:06.364Z,7.95
2022-10-23T13:53:33.244Z,9.38
2022-10-23T13:56:00.208Z,8.90
2022-10-23T13:58:27.190Z,9.90
2022-10-23T14:00:54.311Z,9.95
2022-10-23T14:03:24.390Z,8.88
2022-10-23T14:05:52.249Z,9.00
2022-10-23T14:08:19.482Z,9.32
2022-10-23T14:10:46.557Z,8.23
2022-10-23T14:13:14.575Z,7.85
2022-10-23T14:15:41.550Z,8.20
2022-10-23T14:18:08.645Z,9.60
2022-10-23T14:20:42.018Z,8.88
2022-10-23T14:23:08.891Z,9.52
2022-10-23T14:25:38.572Z,8.63
2022-10-23T14:28:05.615Z,9.35
2022-10-23T14:30:32.649Z,9.27
2022-10-23T14:33:01.997Z,9.75
2022-10-23T14:35:28.974Z,8.32
2022-10-23T14:37:55.983Z,8.95
2022-10-23T14:40:22.958Z,7.78
2022-10-23T14:42:50.720Z,8.18
2022-10-23T14:45:24.751Z,9.02
2022-10-23T14:47:51.552Z,8.48
2022-10-23T14:50:18.321Z,9.85
2022-10-23T14:52:45.150Z,8.90
2022-10-23T14:55:11.927Z,8.07
2022-10-23T14:57:38.828Z,9.20
2022-10-23T15:00:06.830Z,9.60
2022-10-23T15:02:34.004Z,8.85
2022-10-23T15:05:00.862Z,9.95
2022-10-23T15:07:27.644Z,9.30
2022-10-23T15:09:55.600Z,9.18
2022-10-23T15:12:25.020Z,9.75
2022-10-23T15:14:51.770Z,8.23
2022-10-23T15:17:18.588Z,8.77
2022-10-23T15:19:46.223Z,8.45
2022-10-23T15:22:13.811Z,9.32
2022-10-23T15:24:41.744Z,8.15
2022-10-23T15:29:37.935Z,8.98
2022-10-23T15:32:05.998Z,9.40
2022-10-23T15:34:36.363Z,9.65
2022-10-23T15:39:33.951Z,9.45
2022-10-23T15:42:00.764Z,8.73
2022-10-23T15:44:29.844Z,9.65
2022-10-23T15:46:57.445Z,8.60
2022-10-23T15:49:25.099Z,9.02
2022-10-23T15:51:53.168Z,10.00
2022-10-23T15:54:20.930Z,10.05
2022-10-23T15:56:53.872Z,8.13
2022-10-23T15:59:24.672Z,9.65
2022-10-23T16:01:52.102Z,9.93
2022-10-23T16:04:19.290Z,8.13
2022-10-23T16:06:46.251Z,10.27
2022-10-23T16:09:13.280Z,11.63
2022-10-23T16:11:41.831Z,9.27
2022-10-23T16:14:12.883Z,10.38
2022-10-23T16:16:39.733Z,10.50
2022-10-23T16:19:06.562Z,8.82
2022-10-23T16:21:36.267Z,9.27
2022-10-23T16:24:06.397Z,15.32
2022-10-23T16:26:33.852Z,13.05
2022-10-23T16:29:03.867Z,12.60
2022-10-23T16:31:31.199Z,12.93
2022-10-23T16:34:00.487Z,9.20
2022-10-23T16:36:28.223Z,9.68
2022-10-23T16:39:17.643Z,9.63
2022-10-23T16:42:05.254Z,10.32
2022-10-23T16:45:11.037Z,8.60
2022-10-23T16:47:38.128Z,9.95
2022-10-23T16:50:05.286Z,9.40
2022-10-23T16:52:33.395Z,9.75
2022-10-23T16:55:00.304Z,10.20
2022-10-23T16:57:28.052Z,8.25
2022-10-23T16:59:55.463Z,8.65
2022-10-23T17:02:22.538Z,8.73
2022-10-23T17:04:49.887Z,9.85
2022-10-23T17:07:16.814Z,11.88
2022-10-23T17:09:47.317Z,13.20
2022-10-23T17:12:15.970Z,16.58
2022-10-23T17:14:43.127Z,17.00
2022-10-23T17:17:10.159Z,11.95
2022-10-23T17:19:45.120Z,11.10
2022-10-23T17:22:14.028Z,12.73
2022-10-23T17:24:41.814Z,11.55
2022-10-23T17:27:09.202Z,14.10
2022-10-23T17:29:36.480Z,12.43
2022-10-23T17:32:04.309Z,12.88
2022-10-23T17:34:31.224Z,14.57
2022-10-23T17:36:58.179Z,13.65
2022-10-23T17:39:28.047Z,13.25
2022-10-23T17:41:56.041Z,12.95
2022-10-23T17:44:23.307Z,13.18
2022-10-23T17:46:54.034Z,12.18
2022-10-23T17:49:22.817Z,13.07
2022-10-23T17:51:57.295Z,11.20
2022-10-23T17:54:26.717Z,10.05
2022-10-23T17:56:54.137Z,9.18
2022-10-23T17:59:22.129Z,11.57
2022-10-23T18:01:50.245Z,11.27
2022-10-23T18:04:20.815Z,12.73
2022-10-23T18:06:51.100Z,10.82
2022-10-23T18:09:19.000Z,13.88
2022-10-23T18:11:48.179Z,16.77
2022-10-23T18:14:17.191Z,19.38
2022-10-23T18:16:45.990Z,17.48
2022-10-23T18:19:14.611Z,13.68
2022-10-23T18:21:41.758Z,9.05
2022-10-23T18:24:09.245Z,13.77
2022-10-23T18:26:39.478Z,13.68
2022-10-23T18:29:08.664Z,9.73
2022-10-23T18:31:37.415Z,10.30
2022-10-23T18:34:07.788Z,9.52
2022-10-23T18:36:40.908Z,9.85
2022-10-23T18:39:12.801Z,12.63
2022-10-23T18:41:42.161Z,10.63
2022-10-23T18:44:09.873Z,11.80
2022-10-23T18:46:37.621Z,14.50
2022-10-23T18:49:04.921Z,12.60
2022-10-23T18:51:34.344Z,18.23
2022-10-23T18:54:04.546Z,18.48
2022-10-23T18:59:02.006Z,10.82
2022-10-23T19:01:30.338Z,10.45
2022-10-23T19:03:59.802Z,14.70
2022-10-23T19:06:30.530Z,11.95
2022-10-23T19:08:58.440Z,9.73
2022-10-23T19:11:29.140Z,9.60
2022-10-23T19:13:57.545Z,9.65
2022-10-23T19:16:29.980Z,10.43
2022-10-23T19:19:06.116Z,8.73
2022-10-23T19:21:38.678Z,10.07
2022-10-23T19:24:11.383Z,9.07
2022-10-23T19:26:41.412Z,8.65
2022-10-23T19:29:11.953Z,8.77
2022-10-23T19:31:43.364Z,8.35
2022-10-23T19:34:11.639Z,8.23
2022-10-23T19:36:38.613Z,8.98
2022-10-23T19:39:05.694Z,10.50
2022-10-23T19:41:32.730Z,9.23
2022-10-23T19:43:59.970Z,9.63
2022-10-23T19:46:27.314Z,9.38
2022-10-23T19:48:54.603Z,7.55
2022-10-23T19:51:22.052Z,9.73
2022-10-23T19:53:49.456Z,7.93
2022-10-23T19:56:16.703Z,8.43
2022-10-23T19:58:43.718Z,9.63
2022-10-23T20:01:14.748Z,9.18
2022-10-23T20:03:45.628Z,8.98
2022-10-23T20:06:14.991Z,13.60
2022-10-23T20:08:42.651Z,9.88
2022-10-23T20:11:17.904Z,10.35
2022-10-23T20:13:48.721Z,8.73
2022-10-23T20:16:27.761Z,10.82
2022-10-23T20:18:55.621Z,9.02
2022-10-23T20:21:23.604Z,8.52
2022-10-23T20:23:50.782Z,10.23
2022-10-23T20:26:21.494Z,9.35
2022-10-23T20:28:51.887Z,14.52
2022-10-23T20:31:21.184Z,14.32
2022-10-23T20:33:48.146Z,9.70
2022-10-23T20:36:45.428Z,9.48
2022-10-23T20:39:17.137Z,8.85
2022-10-23T20:41:45.244Z,7.63
2022-10-23T20:46:42.637Z,7.40
2022-10-23T20:49:10.091Z,7.47
2022-10-23T20:51:37.808Z,8.57
2022-10-23T20:54:07.101Z,8.48
2022-10-23T20:56:39.018Z,7.65
2022-10-23T20:59:17.562Z,8.63
2022-10-23T21:01:49.662Z,8.60
2022-10-23T21:04:19.427Z,8.00
2022-10-23T21:07:11.394Z,8.00
2022-10-23T21:09:39.791Z,8.38
2022-10-23T21:12:07.375Z,7.78
2022-10-23T21:14:34.965Z,7.80
2022-10-23T21:17:02.136Z,8.40
2022-10-23T21:19:29.106Z,7.13
2022-10-23T21:21:55.967Z,7.95
2022-10-23T21:24:24.211Z,7.15
2022-10-23T21:26:51.205Z,7.70
2022-10-23T21:29:19.316Z,7.35
2022-10-23T21:31:58.251Z,8.68
2022-10-23T21:34:26.219Z,8.18
2022-10-23T21:37:11.963Z,7.68
2022-10-23T21:39:40.410Z,7.35
2022-10-23T21:42:07.259Z,7.63
2022-10-23T21:44:34.178Z,8.27
2022-10-23T21:47:01.067Z,8.55
2022-10-23T21:49:28.430Z,7.95
2022-10-23T21:51:55.440Z,8.93
2022-10-23T21:54:22.779Z,8.40
2022-10-23T21:56:54.029Z,8.48
2022-10-23T21:59:24.513Z,8.35
2022-10-23T22:01:52.498Z,8.82
2022-10-23T22:04:22.139Z,7.72
2022-10-23T22:06:49.965Z,7.15
2022-10-23T22:09:20.253Z,8.95
2022-10-23T22:11:52.303Z,7.95
2022-10-23T22:14:19.231Z,7.60
2022-10-23T22:16:46.560Z,9.05
2022-10-23T22:19:15.918Z,8.27
2022-10-23T22:21:45.285Z,7.45
2022-10-23T22:24:12.773Z,7.88
2022-10-23T22:26:45.918Z,7.72
2022-10-23T22:29:20.180Z,8.10
2022-10-23T22:31:49.674Z,7.70
2022-10-23T22:34:27.154Z,7.30
2022-10-23T22:37:00.917Z,7.70
2022-10-23T22:39:27.607Z,7.93
2022-10-23T22:41:54.501Z,8.50
2022-10-23T22:44:21.228Z,7.68
2022-10-23T22:46:48.116Z,8.00
2022-10-23T22:49:14.934Z,8.88
2022-10-23T22:51:41.895Z,7.32
2022-10-23T22:54:08.766Z,7.90
2022-10-23T22:56:35.468Z,8.95
2022-10-23T22:59:02.644Z,7.97
2022-10-23T23:01:43.216Z,6.82
2022-10-23T23:04:36.858Z,7.00
2022-10-23T23:06:59.924Z,8.48
2022-10-23T23:09:26.867Z,6.72
2022-10-23T23:11:56.327Z,6.78
2022-10-23T23:14:24.399Z,8.65
2022-10-23T23:16:53.153Z,7.43
2022-10-23T23:19:20.133Z,7.55
2022-10-23T23:21:47.229Z,7.53
2022-10-23T23:24:17.587Z,7.50
2022-10-23T23:26:44.406Z,6.82
2022-10-23T23:29:11.565Z,8.50
2022-10-23T23:31:38.602Z,7.10
2022-10-23T23:34:05.896Z,6.72
2022-10-23T23:36:33.930Z,7.40
2022-10-23T23:39:00.890Z,6.43
2022-10-23T23:41:29.164Z,6.60
2022-10-23T23:43:57.642Z,6.90
2022-10-23T23:46:25.253Z,7.47
2022-10-23T23:48:52.411Z,7.10
2022-10-23T23:51:24.654Z,7.97
2022-10-23T23:53:52.227Z,7.22
2022-10-23T23:56:19.596Z,6.72
2022-10-23T23:58:46.421Z,6.30
